Tukholma, Ruotsi

26. toukokuuta 2015 klo 01:19 (CEST) (GMT +0200)
Bromma | | Change Station
CLOSE
Current Station
Airport
Location: Stockholm Bromma,
Korkeus: 46 ft
Lähimmät sääasemat

Kork 46 ft 59.37 °N, 17.90 °E | Updated 29 minutes ago

Overcast
Täysin pilvistä
50 °F
Tuntuu kuin 50 °F
N
7
Tuuli Suunnaltaan vaihteleva Tuuli ilmansuunnasta Kaakko

Tänään
Korkea -- | Matala -- °F
--% Sateen mahd.
Eilen
Korkea -- | Matala -- °F
Precip. -- tuumaa
3:53 AM 9:37 PM
Ensimmäinen neljännes, 52% visible
Ilmanpaine 29.80 tuumaa
Näkyvyys 6.2 mailia
Pilviä Täysin pilvistä 6200 ft
Kastepiste 45 °F
Ilmankosteus 82%
Sademäärä 0.00 tuumaa
Lumensyvyys Ei saatavilla
UV 0 / 12
Pollen Ei saatavilla
Ilmanlaatu Ei saatavilla
Flu Activity Ei saatavilla
METAR ESSB 252250Z AUTO 14006KT 9999 OVC062/// 10/07 Q1009

More Conditions Fewer Conditions

Ilmanpaine 29.80 tuumaa
Näkyvyys 6.2 mailia
Pilviä Täysin pilvistä 6200 ft
Kastepiste 45 °F
Ilmankosteus 82%
Sademäärä 0.00 tuumaa
Lumensyvyys Ei saatavilla
UV 0 / 12
Pollen Ei saatavilla
Ilmanlaatu Ei saatavilla
Flu Activity Ei saatavilla
METAR ESSB 252250Z AUTO 14006KT 9999 OVC062/// 10/07 Q1009

More Conditions Fewer Conditions

10-Day Weather Forecast

Almanac

Tähtitiede

May. 26, 2015 Nousuaika Laskuaika
Valoisa aika
Porvarillinen hämärä
Nauttinen hämärä
Astronominen hämärä
Kuu
Näkyvän valon pituus
Päivän pituus
Tomorrow will be .
, % of the Moon is Illuminated

Tämän päivän ennätykset

Country Highs Country Lows

Community

WunderPhotos

Upload Photos

1,824,165 photos uploaded!

WunderBlogs® & News

Nearby

Ilmanlaatu

  Ilmanlaatu AQ Index Pollutant
Not available.

Lumensyvyys

Station Depth Korkeus

Maanjäristysaktiivisuus

Paikkakunta Distance Mag. Time & Date
Minimum magnitude displayed is 2.5.

Coastal Water Temperatures

Paikka Lämpötila

Stations

Lähimmät sääasemat

Aseman sijainti Lämpötila Tuulen hyytävyys Kastepiste Ilmankosteus Tuuli Precip. Kork Päivitetty Tyyppi